Terminal Aerodrome Forecast
Issued by NWS Grand Forks, ND

Home | Current Version | Previous Version | Text Only | Print | Product List | Glossary On
Versions: 1 2 3 4 5 6 7 8 9 10 11 12
225
FTUS43 KFGF 181726
TAFGFK
TAF
KGFK 181726Z 1818/1918 20007KT P6SM FEW200
     FM190400 18008KT 5SM BR FEW150
     FM191600 18009KT P6SM FEW200=

USA.gov is the U.S. government's official web portal to all federal, state and local government web resources and services.